createdAt,value
2022-10-05T00:00:00.191Z,11.70
2022-10-05T00:01:17.387Z,11.70
2022-10-05T00:02:22.697Z,11.70
2022-10-05T00:03:33.650Z,11.70
2022-10-05T00:04:35.675Z,12.00
2022-10-05T00:05:37.494Z,12.00
2022-10-05T00:06:39.722Z,12.10
2022-10-05T00:07:41.480Z,11.90
2022-10-05T00:08:43.600Z,11.90
2022-10-05T00:09:52.151Z,12.20
2022-10-05T00:10:56.140Z,12.50
2022-10-05T00:11:58.000Z,12.60
2022-10-05T00:12:59.831Z,12.50
2022-10-05T00:14:10.493Z,12.30
2022-10-05T00:15:14.852Z,12.30
2022-10-05T00:16:21.907Z,12.30
2022-10-05T00:17:26.882Z,12.00
2022-10-05T00:18:28.665Z,12.50
2022-10-05T00:19:36.582Z,12.40
2022-10-05T00:20:40.164Z,11.90
2022-10-05T00:21:41.868Z,11.70
2022-10-05T00:22:43.873Z,11.70
2022-10-05T00:23:45.703Z,11.70
2022-10-05T00:24:50.115Z,11.70
2022-10-05T00:25:51.865Z,11.70
2022-10-05T00:26:57.788Z,11.70
2022-10-05T00:28:01.533Z,11.70
2022-10-05T00:29:13.742Z,11.80
2022-10-05T00:30:15.803Z,11.70
2022-10-05T00:31:26.310Z,11.40
2022-10-05T00:32:28.260Z,11.30
2022-10-05T00:33:30.284Z,11.90
2022-10-05T00:34:34.294Z,11.20
2022-10-05T00:35:36.943Z,11.30
2022-10-05T00:36:40.290Z,11.20
2022-10-05T00:37:42.514Z,11.30
2022-10-05T00:38:44.958Z,11.20
2022-10-05T00:39:49.783Z,11.00
2022-10-05T00:41:30.693Z,11.10
2022-10-05T00:42:44.710Z,11.20
2022-10-05T00:44:13.198Z,11.20
2022-10-05T00:45:34.208Z,11.00
2022-10-05T00:46:57.943Z,11.00
2022-10-05T00:48:32.814Z,11.40
2022-10-05T00:49:47.674Z,11.70
2022-10-05T00:50:57.188Z,11.60
2022-10-05T00:52:24.469Z,11.60
2022-10-05T00:53:42.719Z,11.60
2022-10-05T00:54:54.324Z,12.10
2022-10-05T00:56:20.910Z,12.30
2022-10-05T00:57:39.670Z,12.40
2022-10-05T00:59:24.097Z,12.10
2022-10-05T01:00:27.860Z,12.30
2022-10-05T01:01:41.268Z,12.20
2022-10-05T01:03:19.224Z,11.80
2022-10-05T01:04:41.488Z,12.10
2022-10-05T01:06:11.115Z,11.90
2022-10-05T01:07:19.090Z,11.80
2022-10-05T01:08:31.791Z,12.20
2022-10-05T01:09:40.998Z,12.10
2022-10-05T01:10:57.161Z,12.80
2022-10-05T01:12:09.843Z,11.80
2022-10-05T01:13:27.840Z,12.10
2022-10-05T01:15:05.625Z,12.20
2022-10-05T01:16:41.918Z,12.20
2022-10-05T01:17:52.698Z,12.20
2022-10-05T01:19:39.567Z,11.60
2022-10-05T01:20:50.919Z,11.50
2022-10-05T01:22:07.958Z,11.50
2022-10-05T01:23:34.248Z,11.50
2022-10-05T01:24:57.581Z,11.50
2022-10-05T01:26:38.700Z,11.50
2022-10-05T01:27:48.540Z,12.10
2022-10-05T01:29:10.965Z,11.80
2022-10-05T01:30:17.221Z,11.50
2022-10-05T01:31:36.386Z,12.10
2022-10-05T01:32:44.039Z,11.90
2022-10-05T01:33:58.344Z,12.00
2022-10-05T01:35:05.146Z,12.10
2022-10-05T01:36:15.479Z,11.70
2022-10-05T01:37:20.211Z,11.70
2022-10-05T01:38:46.703Z,11.90
2022-10-05T01:39:56.997Z,11.50
2022-10-05T01:41:08.881Z,11.40
2022-10-05T01:42:30.602Z,11.80
2022-10-05T01:44:04.151Z,12.10
2022-10-05T01:45:28.391Z,12.10
2022-10-05T01:46:38.085Z,11.80
2022-10-05T01:47:55.470Z,11.90
2022-10-05T01:49:35.161Z,11.70
2022-10-05T01:50:58.721Z,11.60
2022-10-05T01:52:31.213Z,11.40
2022-10-05T01:53:58.858Z,11.70
2022-10-05T01:55:03.687Z,11.40
2022-10-05T01:56:30.712Z,12.00
2022-10-05T01:58:01.384Z,11.40
2022-10-05T01:59:27.078Z,11.40
2022-10-05T02:00:32.890Z,11.30
2022-10-05T02:01:49.997Z,11.30
2022-10-05T02:03:11.038Z,11.50
2022-10-05T02:05:00.536Z,11.40
2022-10-05T02:06:01.930Z,11.40
2022-10-05T02:07:14.804Z,11.40
2022-10-05T02:08:59.083Z,11.40
2022-10-05T02:10:21.384Z,12.00
2022-10-05T02:11:23.123Z,12.10
2022-10-05T02:12:29.418Z,12.20
2022-10-05T02:13:40.572Z,12.20
2022-10-05T02:14:49.856Z,12.10
2022-10-05T02:16:03.040Z,12.10
2022-10-05T02:17:15.213Z,11.90
2022-10-05T02:18:27.557Z,11.90
2022-10-05T02:19:39.179Z,11.40
2022-10-05T02:20:43.025Z,11.30
2022-10-05T02:21:50.752Z,11.30
2022-10-05T02:22:58.190Z,11.30
2022-10-05T02:24:08.110Z,11.30
2022-10-05T02:25:22.932Z,11.30
2022-10-05T02:26:26.455Z,11.30
2022-10-05T02:27:33.499Z,11.30
2022-10-05T02:28:42.732Z,11.30
2022-10-05T02:29:47.325Z,11.30
2022-10-05T02:30:59.107Z,10.90
2022-10-05T02:32:04.974Z,10.50
2022-10-05T02:33:27.829Z,10.40
2022-10-05T02:34:50.955Z,10.80
2022-10-05T02:35:53.351Z,10.80
2022-10-05T02:37:14.381Z,10.50
2022-10-05T02:38:39.350Z,10.40
2022-10-05T02:39:48.006Z,10.70
2022-10-05T02:41:14.449Z,11.20
2022-10-05T02:42:30.526Z,11.00
2022-10-05T02:44:07.155Z,10.90
2022-10-05T02:45:17.804Z,11.80
2022-10-05T02:46:34.369Z,11.10
2022-10-05T02:47:58.139Z,11.10
2022-10-05T02:49:14.921Z,11.10
2022-10-05T02:50:45.268Z,11.20
2022-10-05T02:52:25.457Z,11.10
2022-10-05T02:53:31.558Z,11.10
2022-10-05T02:55:01.038Z,11.10
2022-10-05T02:56:09.177Z,11.10
2022-10-05T02:57:35.657Z,11.10
2022-10-05T02:59:07.958Z,11.10
2022-10-05T03:00:15.278Z,11.10
2022-10-05T03:01:31.549Z,10.80
2022-10-05T03:02:39.878Z,10.90
2022-10-05T03:03:54.001Z,10.90
2022-10-05T03:05:22.037Z,11.00
2022-10-05T03:06:30.462Z,11.10
2022-10-05T03:07:46.466Z,11.10
2022-10-05T03:09:09.486Z,11.10
2022-10-05T03:10:14.208Z,11.10
2022-10-05T03:11:42.641Z,10.80
2022-10-05T03:12:50.556Z,10.90
2022-10-05T03:14:16.213Z,10.00
2022-10-05T03:15:49.041Z,10.20
2022-10-05T03:17:00.790Z,11.00
2022-10-05T03:18:30.983Z,11.00
2022-10-05T03:19:50.208Z,11.00
2022-10-05T03:21:19.629Z,11.00
2022-10-05T03:22:41.226Z,11.00
2022-10-05T03:24:24.703Z,10.90
2022-10-05T03:25:48.147Z,10.90
2022-10-05T03:27:23.420Z,10.90
2022-10-05T03:28:51.375Z,11.00
2022-10-05T03:30:18.202Z,11.40
2022-10-05T03:31:25.629Z,10.90
2022-10-05T03:32:46.539Z,10.90
2022-10-05T03:34:11.359Z,11.20
2022-10-05T03:36:02.208Z,11.30
2022-10-05T03:37:33.438Z,11.40
2022-10-05T03:38:36.349Z,11.40
2022-10-05T03:39:51.849Z,10.90
2022-10-05T03:41:02.391Z,11.00
2022-10-05T03:42:44.373Z,10.90
2022-10-05T03:44:15.972Z,11.20
2022-10-05T03:45:23.596Z,11.40
2022-10-05T03:46:39.792Z,11.20
2022-10-05T03:48:01.515Z,11.20
2022-10-05T03:49:47.115Z,11.00
2022-10-05T03:51:21.014Z,11.10
2022-10-05T03:52:29.977Z,11.00
2022-10-05T03:53:41.736Z,10.90
2022-10-05T03:54:54.815Z,10.90
2022-10-05T03:56:06.889Z,10.90
2022-10-05T03:57:14.833Z,11.00
2022-10-05T03:58:27.393Z,10.90
2022-10-05T03:59:47.299Z,10.90
2022-10-05T04:00:54.087Z,11.00
2022-10-05T04:02:01.773Z,10.90
2022-10-05T04:03:24.912Z,10.90
2022-10-05T04:04:40.887Z,10.50
2022-10-05T04:05:59.491Z,10.90
2022-10-05T04:07:02.207Z,10.90
2022-10-05T04:08:20.877Z,10.90
2022-10-05T04:09:39.233Z,10.90
2022-10-05T04:10:54.016Z,10.90
2022-10-05T04:12:09.726Z,10.80
2022-10-05T04:13:15.512Z,10.80
2022-10-05T04:14:25.644Z,11.10
2022-10-05T04:15:36.329Z,11.00
2022-10-05T04:16:59.674Z,11.20
2022-10-05T04:18:05.744Z,11.20
2022-10-05T04:19:22.444Z,10.80
2022-10-05T04:20:43.271Z,11.30
2022-10-05T04:21:51.509Z,11.40
2022-10-05T04:23:28.539Z,11.00
2022-10-05T04:25:01.572Z,10.80
2022-10-05T04:26:09.232Z,10.80
2022-10-05T04:27:24.325Z,10.90
2022-10-05T04:28:50.695Z,10.80
2022-10-05T04:30:25.173Z,10.80
2022-10-05T04:31:32.692Z,10.80
2022-10-05T04:32:37.146Z,10.80
2022-10-05T04:33:38.855Z,10.80
2022-10-05T04:35:22.100Z,10.80
2022-10-05T04:36:43.337Z,10.80
2022-10-05T04:37:54.257Z,10.80
2022-10-05T04:39:20.566Z,10.90
2022-10-05T04:40:41.607Z,11.00
2022-10-05T04:42:30.914Z,10.80
2022-10-05T04:43:57.863Z,10.80
2022-10-05T04:45:13.903Z,10.80
2022-10-05T04:46:18.953Z,10.80
2022-10-05T04:47:51.800Z,10.70
2022-10-05T04:49:01.747Z,10.70
2022-10-05T04:50:06.513Z,10.70
2022-10-05T04:51:19.372Z,10.70
2022-10-05T04:52:35.999Z,10.70
2022-10-05T04:53:42.724Z,10.70
2022-10-05T04:55:22.766Z,10.70
2022-10-05T04:56:38.558Z,10.70
2022-10-05T04:57:58.810Z,10.70
2022-10-05T04:59:18.197Z,10.50
2022-10-05T05:00:25.495Z,11.40
2022-10-05T05:01:36.224Z,11.60
2022-10-05T05:02:41.716Z,11.80
2022-10-05T05:04:16.753Z,11.70
2022-10-05T05:05:21.562Z,11.60
2022-10-05T05:06:32.560Z,11.50
2022-10-05T05:08:16.048Z,11.40
2022-10-05T05:09:46.391Z,11.50
2022-10-05T05:11:08.331Z,11.20
2022-10-05T05:12:46.575Z,10.60
2022-10-05T05:14:00.453Z,12.00
2022-10-05T05:15:11.467Z,11.30
2022-10-05T05:16:19.510Z,11.00
2022-10-05T05:17:34.905Z,10.90
2022-10-05T05:18:49.452Z,10.80
2022-10-05T05:20:09.605Z,10.60
2022-10-05T05:21:24.851Z,10.60
2022-10-05T05:23:07.147Z,10.80
2022-10-05T05:24:31.399Z,11.20
2022-10-05T05:25:46.680Z,11.40
2022-10-05T05:27:01.037Z,11.00
2022-10-05T05:28:29.019Z,11.00
2022-10-05T05:29:58.229Z,11.10
2022-10-05T05:31:24.749Z,11.50
2022-10-05T05:33:01.324Z,11.50
2022-10-05T05:34:37.671Z,11.70
2022-10-05T05:36:10.514Z,11.10
2022-10-05T05:37:41.646Z,11.20
2022-10-05T05:39:00.992Z,11.70
2022-10-05T05:40:10.155Z,11.70
2022-10-05T05:41:36.960Z,11.40
2022-10-05T05:43:14.016Z,12.20
2022-10-05T05:44:38.420Z,11.70
2022-10-05T05:45:54.443Z,11.90
2022-10-05T05:47:05.677Z,12.10
2022-10-05T05:48:26.118Z,12.20
2022-10-05T05:49:48.281Z,12.30
2022-10-05T05:50:58.450Z,12.30
2022-10-05T05:52:10.551Z,11.90
2022-10-05T05:53:24.393Z,11.80
2022-10-05T05:54:56.723Z,11.60
2022-10-05T05:56:15.215Z,11.20
2022-10-05T05:57:28.248Z,11.70
2022-10-05T05:58:38.631Z,11.40
2022-10-05T06:00:00.589Z,10.90
2022-10-05T06:01:32.127Z,10.80
2022-10-05T06:02:48.367Z,10.90
2022-10-05T06:03:57.939Z,10.70
2022-10-05T06:05:18.302Z,10.60
2022-10-05T06:06:26.806Z,10.60
2022-10-05T06:07:31.345Z,11.10
2022-10-05T06:08:41.112Z,11.10
2022-10-05T06:09:50.878Z,11.10
2022-10-05T06:11:23.062Z,10.90
2022-10-05T06:12:32.429Z,10.70
2022-10-05T06:13:37.699Z,10.70
2022-10-05T06:14:52.359Z,10.70
2022-10-05T06:16:05.432Z,10.60
2022-10-05T06:17:33.385Z,10.50
2022-10-05T06:18:39.381Z,10.40
2022-10-05T06:19:43.031Z,10.50
2022-10-05T06:20:54.861Z,10.40
2022-10-05T06:22:13.660Z,10.40
2022-10-05T06:23:48.995Z,9.90
2022-10-05T06:25:17.242Z,10.00
2022-10-05T06:26:39.991Z,9.70
2022-10-05T06:28:02.531Z,10.30
2022-10-05T06:29:10.521Z,10.00
2022-10-05T06:30:19.821Z,9.90
2022-10-05T06:31:46.770Z,10.20
2022-10-05T06:33:14.811Z,9.90
2022-10-05T06:34:18.140Z,9.80
2022-10-05T06:35:50.055Z,9.80
2022-10-05T06:37:00.449Z,9.80
2022-10-05T06:38:08.071Z,9.70
2022-10-05T06:39:29.007Z,9.60
2022-10-05T06:40:49.396Z,9.60
2022-10-05T06:42:13.742Z,9.70
2022-10-05T06:43:27.405Z,9.70
2022-10-05T06:44:49.832Z,10.20
2022-10-05T06:46:07.060Z,10.50
2022-10-05T06:47:35.048Z,10.00
2022-10-05T06:49:13.855Z,10.20
2022-10-05T06:50:23.007Z,10.50
2022-10-05T06:51:34.828Z,10.00
2022-10-05T06:52:55.963Z,9.80
2022-10-05T06:54:35.571Z,9.90
2022-10-05T06:56:22.614Z,9.70
2022-10-05T06:57:30.818Z,10.00
2022-10-05T06:58:58.204Z,10.10
2022-10-05T07:00:20.706Z,9.90
2022-10-05T07:01:37.683Z,9.90
2022-10-05T07:02:45.833Z,10.20
2022-10-05T07:04:17.675Z,10.00
2022-10-05T07:05:25.046Z,10.40
2022-10-05T07:06:33.617Z,10.50
2022-10-05T07:08:01.257Z,10.40
2022-10-05T07:09:15.801Z,10.20
2022-10-05T07:10:55.259Z,9.90
2022-10-05T07:12:34.962Z,9.90
2022-10-05T07:13:42.774Z,10.00
2022-10-05T07:14:56.372Z,9.40
2022-10-05T07:16:21.019Z,9.50
2022-10-05T07:17:49.279Z,9.70
2022-10-05T07:19:06.966Z,9.70
2022-10-05T07:20:08.674Z,9.40
2022-10-05T07:21:35.891Z,9.30
2022-10-05T07:22:43.350Z,9.40
2022-10-05T07:24:23.089Z,9.50
2022-10-05T07:25:51.641Z,9.40
2022-10-05T07:27:20.444Z,9.50
2022-10-05T07:28:44.173Z,9.50
2022-10-05T07:29:55.979Z,9.70
2022-10-05T07:31:21.495Z,8.80
2022-10-05T07:32:56.754Z,9.10
2022-10-05T07:34:17.483Z,9.20
2022-10-05T07:35:47.062Z,9.00
2022-10-05T07:37:32.695Z,9.40
2022-10-05T07:38:43.420Z,8.60
2022-10-05T07:40:01.698Z,8.90
2022-10-05T07:41:11.295Z,8.90
2022-10-05T07:42:33.201Z,9.20
2022-10-05T07:44:02.571Z,9.10
2022-10-05T07:45:24.978Z,9.40
2022-10-05T07:46:49.495Z,9.40
2022-10-05T07:47:56.048Z,8.80
2022-10-05T07:49:29.388Z,8.60
2022-10-05T07:50:35.098Z,8.80
2022-10-05T07:51:41.537Z,8.90
2022-10-05T07:52:54.064Z,9.00
2022-10-05T07:54:17.372Z,9.10
2022-10-05T07:55:31.717Z,9.30
2022-10-05T07:56:41.058Z,9.20
2022-10-05T07:58:13.209Z,9.10
2022-10-05T07:59:40.993Z,9.10
2022-10-05T08:01:08.357Z,9.00
2022-10-05T08:02:29.778Z,9.10
2022-10-05T08:03:54.035Z,8.90
2022-10-05T08:05:11.212Z,8.80
2022-10-05T08:06:31.025Z,8.70
2022-10-05T08:07:35.645Z,8.90
2022-10-05T08:09:01.299Z,8.60
2022-10-05T08:10:25.624Z,8.10
2022-10-05T08:11:29.558Z,8.00
2022-10-05T08:13:05.874Z,7.80
2022-10-05T08:14:22.722Z,7.80
2022-10-05T08:15:31.979Z,7.80
2022-10-05T08:16:38.576Z,7.80
2022-10-05T08:18:02.109Z,7.80
2022-10-05T08:19:31.236Z,7.50
2022-10-05T08:20:46.633Z,7.40
2022-10-05T08:21:55.923Z,7.80
2022-10-05T08:23:31.186Z,7.90
2022-10-05T08:24:53.744Z,7.80
2022-10-05T08:26:01.040Z,7.90
2022-10-05T08:27:15.200Z,7.90
2022-10-05T08:28:24.039Z,8.00
2022-10-05T08:29:41.013Z,7.60
2022-10-05T08:31:25.177Z,8.00
2022-10-05T08:32:54.026Z,7.70
2022-10-05T08:34:23.925Z,7.50
2022-10-05T08:35:41.095Z,7.40
2022-10-05T08:37:07.409Z,7.60
2022-10-05T08:38:19.420Z,7.70
2022-10-05T08:39:24.396Z,7.90
2022-10-05T08:40:39.706Z,7.80
2022-10-05T08:42:13.449Z,7.80
2022-10-05T08:43:26.087Z,7.50
2022-10-05T08:44:58.540Z,7.60
2022-10-05T08:46:14.734Z,7.70
2022-10-05T08:47:28.287Z,8.10
2022-10-05T08:48:50.914Z,8.00
2022-10-05T08:49:57.147Z,7.90
2022-10-05T08:51:07.871Z,7.80
2022-10-05T08:52:32.895Z,7.30
2022-10-05T08:54:07.125Z,7.50
2022-10-05T08:55:08.958Z,7.30
2022-10-05T08:56:44.890Z,7.30
2022-10-05T08:58:08.555Z,7.60
2022-10-05T08:59:42.403Z,7.50
2022-10-05T09:01:07.506Z,8.00
2022-10-05T09:02:18.853Z,7.80
2022-10-05T09:03:41.834Z,7.30
2022-10-05T09:04:46.291Z,7.30
2022-10-05T09:06:15.360Z,7.20
2022-10-05T09:07:42.021Z,7.10
2022-10-05T09:08:55.425Z,7.10
2022-10-05T09:10:10.080Z,7.10
2022-10-05T09:11:22.759Z,7.10
2022-10-05T09:13:01.317Z,6.80
2022-10-05T09:14:40.669Z,6.60
2022-10-05T09:16:01.540Z,6.10
2022-10-05T09:17:39.437Z,6.90
2022-10-05T09:18:50.823Z,6.60
2022-10-05T09:20:00.217Z,6.30
2022-10-05T09:21:44.901Z,6.10
2022-10-05T09:23:15.218Z,6.30
2022-10-05T09:24:24.333Z,5.80
2022-10-05T09:26:08.264Z,6.00
2022-10-05T09:27:16.027Z,6.50
2022-10-05T09:28:38.804Z,6.20
2022-10-05T09:30:01.819Z,5.90
2022-10-05T09:31:21.774Z,5.20
2022-10-05T09:32:44.850Z,5.40
2022-10-05T09:34:12.463Z,5.30
2022-10-05T09:35:33.218Z,6.00
2022-10-05T09:37:03.191Z,5.40
2022-10-05T09:38:08.668Z,5.40
2022-10-05T09:39:47.076Z,5.50
2022-10-05T09:41:07.659Z,5.40
2022-10-05T09:43:06.068Z,5.50
2022-10-05T09:44:27.874Z,4.50
2022-10-05T09:46:04.440Z,4.50
2022-10-05T09:47:30.832Z,5.10
2022-10-05T09:48:54.146Z,4.10
2022-10-05T09:50:37.837Z,4.70
2022-10-05T09:52:09.357Z,4.60
2022-10-05T09:53:29.500Z,4.60
2022-10-05T09:54:47.243Z,4.50
2022-10-05T09:56:30.493Z,4.40
2022-10-05T09:57:42.328Z,4.10
2022-10-05T09:58:55.476Z,4.00
2022-10-05T10:00:36.096Z,4.00
2022-10-05T10:02:04.580Z,3.10
2022-10-05T10:03:43.785Z,3.00
2022-10-05T10:05:20.823Z,3.00
2022-10-05T10:06:46.562Z,3.20
2022-10-05T10:07:55.560Z,3.00
2022-10-05T10:09:03.038Z,2.60
2022-10-05T10:10:31.573Z,2.70
2022-10-05T10:11:54.141Z,2.80
2022-10-05T10:13:19.846Z,2.80
2022-10-05T10:14:49.645Z,2.40
2022-10-05T10:16:15.323Z,2.40
2022-10-05T10:17:28.910Z,2.50
2022-10-05T10:18:41.420Z,2.50
2022-10-05T10:20:02.939Z,3.10
2022-10-05T10:21:15.655Z,2.80
2022-10-05T10:22:56.372Z,2.60
2022-10-05T10:24:16.567Z,2.60
2022-10-05T10:25:24.386Z,2.40
2022-10-05T10:27:02.862Z,2.40
2022-10-05T10:28:19.822Z,2.60
2022-10-05T10:29:36.149Z,2.50
2022-10-05T10:31:02.809Z,2.30
2022-10-05T10:32:21.341Z,2.30
2022-10-05T10:33:35.791Z,2.60
2022-10-05T10:35:20.434Z,2.30
2022-10-05T10:36:37.575Z,2.00
2022-10-05T10:38:00.541Z,1.90
2022-10-05T10:39:38.082Z,2.10
2022-10-05T10:40:55.053Z,1.20
2022-10-05T10:42:08.520Z,1.00
2022-10-05T10:43:41.385Z,1.00
2022-10-05T10:45:01.317Z,1.00
2022-10-05T10:46:12.082Z,1.00
2022-10-05T10:47:31.037Z,1.40
2022-10-05T10:48:41.103Z,1.00
2022-10-05T10:50:07.438Z,1.00
2022-10-05T10:51:40.319Z,1.00
2022-10-05T10:53:15.828Z,1.00
2022-10-05T10:54:47.809Z,1.00
2022-10-05T10:56:04.181Z,1.00
2022-10-05T10:57:25.443Z,1.00
2022-10-05T10:59:12.824Z,1.00
2022-10-05T11:00:47.228Z,1.00
2022-10-05T11:02:10.549Z,1.00
2022-10-05T11:03:31.915Z,1.00
2022-10-05T11:05:03.648Z,1.00
2022-10-05T11:06:10.717Z,1.00
2022-10-05T11:07:15.277Z,1.00
2022-10-05T11:08:35.513Z,1.00
2022-10-05T11:09:39.718Z,1.00
2022-10-05T11:11:19.139Z,1.00
2022-10-05T11:12:30.883Z,1.00
2022-10-05T11:14:04.044Z,1.00
2022-10-05T11:15:33.528Z,1.00
2022-10-05T11:16:44.664Z,1.00
2022-10-05T11:18:27.676Z,1.00
2022-10-05T11:20:10.519Z,1.00
2022-10-05T11:21:37.375Z,1.00
2022-10-05T11:22:54.026Z,1.00
2022-10-05T11:24:26.310Z,1.00
2022-10-05T11:25:31.345Z,1.00
2022-10-05T11:27:07.549Z,1.00
2022-10-05T11:28:18.177Z,1.00
2022-10-05T11:29:41.559Z,1.00
2022-10-05T11:31:01.831Z,1.00
2022-10-05T11:32:14.099Z,1.00
2022-10-05T11:33:42.839Z,1.00
2022-10-05T11:34:51.544Z,1.00
2022-10-05T11:35:59.308Z,1.00
2022-10-05T11:37:29.173Z,1.00
2022-10-05T11:39:02.166Z,1.00
2022-10-05T11:40:36.095Z,1.00
2022-10-05T11:41:50.114Z,1.00
2022-10-05T11:43:00.441Z,1.00
2022-10-05T11:44:27.188Z,1.00
2022-10-05T11:45:55.004Z,1.00
2022-10-05T11:47:08.733Z,1.00
2022-10-05T11:48:13.268Z,1.00
2022-10-05T11:49:32.750Z,1.00
2022-10-05T11:51:09.602Z,1.00
2022-10-05T11:52:13.748Z,1.00
2022-10-05T11:53:26.521Z,1.00
2022-10-05T11:55:12.193Z,1.00
2022-10-05T11:56:21.987Z,1.00
2022-10-05T11:57:28.958Z,1.00
2022-10-05T11:58:51.643Z,1.00
2022-10-05T12:00:02.206Z,1.00
2022-10-05T12:01:15.481Z,1.00
2022-10-05T12:02:47.778Z,1.00
2022-10-05T12:04:12.768Z,1.00
2022-10-05T12:05:41.277Z,1.00
2022-10-05T12:07:08.841Z,1.00
2022-10-05T12:08:36.088Z,1.00
2022-10-05T12:10:14.382Z,1.00
2022-10-05T12:11:49.125Z,1.00
2022-10-05T12:13:15.101Z,1.00
2022-10-05T12:14:48.392Z,1.00
2022-10-05T12:16:06.595Z,1.00
2022-10-05T12:17:24.041Z,1.00
2022-10-05T12:18:32.826Z,1.00
2022-10-05T12:19:38.843Z,1.00
2022-10-05T12:20:51.883Z,1.00
2022-10-05T12:22:04.071Z,1.00
2022-10-05T12:23:46.789Z,1.00
2022-10-05T12:25:02.974Z,1.00
2022-10-05T12:26:11.200Z,1.00
2022-10-05T12:27:22.792Z,1.00
2022-10-05T12:28:37.433Z,1.00
2022-10-05T12:29:57.736Z,1.00
2022-10-05T12:31:11.781Z,1.00
2022-10-05T12:32:34.323Z,1.00
2022-10-05T12:34:04.172Z,1.00
2022-10-05T12:35:12.055Z,1.00
2022-10-05T12:37:06.461Z,1.00
2022-10-05T12:38:19.909Z,1.00
2022-10-05T12:39:50.708Z,1.00
2022-10-05T12:41:01.068Z,1.00
2022-10-05T12:42:11.349Z,1.00
2022-10-05T12:43:43.619Z,1.00
2022-10-05T12:45:01.517Z,1.00
2022-10-05T12:46:24.355Z,1.00
2022-10-05T12:47:40.861Z,1.00
2022-10-05T12:48:57.992Z,1.00
2022-10-05T12:50:14.448Z,1.00
2022-10-05T12:51:25.410Z,1.00
2022-10-05T12:52:32.133Z,1.00
2022-10-05T12:53:40.812Z,1.00
2022-10-05T12:55:02.608Z,1.00
2022-10-05T12:56:08.723Z,1.00
2022-10-05T12:57:25.254Z,1.00
2022-10-05T12:58:47.862Z,1.00
2022-10-05T12:59:58.735Z,1.00
2022-10-05T13:01:21.956Z,1.00
2022-10-05T13:02:42.426Z,1.00
2022-10-05T13:03:57.098Z,1.00
2022-10-05T13:05:10.818Z,1.00
2022-10-05T13:06:41.902Z,1.00
2022-10-05T13:08:13.499Z,1.00
2022-10-05T13:09:28.665Z,1.00
2022-10-05T13:10:39.356Z,1.00
2022-10-05T13:12:08.201Z,1.00
2022-10-05T13:13:25.588Z,1.00
2022-10-05T13:14:42.749Z,1.00
2022-10-05T13:15:54.806Z,1.00
2022-10-05T13:17:20.853Z,1.00
2022-10-05T13:18:51.725Z,1.00
2022-10-05T13:19:59.383Z,1.00
2022-10-05T13:21:07.156Z,1.00
2022-10-05T13:22:33.631Z,1.00
2022-10-05T13:23:57.525Z,1.00
2022-10-05T13:25:20.925Z,1.00
2022-10-05T13:27:05.466Z,1.00
2022-10-05T13:28:16.795Z,1.00
2022-10-05T13:29:33.246Z,1.00
2022-10-05T13:30:36.732Z,1.00
2022-10-05T13:31:54.506Z,1.00
2022-10-05T13:32:58.521Z,1.00
2022-10-05T13:34:27.953Z,1.00
2022-10-05T13:35:44.614Z,1.00
2022-10-05T13:37:11.725Z,1.00
2022-10-05T13:38:28.141Z,1.00
2022-10-05T13:40:07.387Z,1.00
2022-10-05T13:41:26.267Z,1.00
2022-10-05T13:42:39.642Z,1.00
2022-10-05T13:43:55.444Z,1.00
2022-10-05T13:45:10.182Z,1.00
2022-10-05T13:46:36.941Z,1.00
2022-10-05T13:47:56.809Z,1.00
2022-10-05T13:49:26.563Z,1.00
2022-10-05T13:50:33.551Z,1.00
2022-10-05T13:51:53.863Z,1.00
2022-10-05T13:52:58.227Z,1.00
2022-10-05T13:54:10.751Z,1.00
2022-10-05T13:55:47.419Z,1.00
2022-10-05T13:56:54.463Z,1.00
2022-10-05T13:58:05.895Z,1.00
2022-10-05T13:59:30.464Z,1.00
2022-10-05T14:00:40.959Z,1.00
2022-10-05T14:01:59.161Z,1.00
2022-10-05T14:03:01.929Z,1.00
2022-10-05T14:04:27.341Z,1.00
2022-10-05T14:05:34.056Z,1.00
2022-10-05T14:06:37.943Z,1.00
2022-10-05T14:07:51.393Z,1.00
2022-10-05T14:08:53.385Z,1.00
2022-10-05T14:09:55.318Z,1.00
2022-10-05T14:11:00.698Z,1.00
2022-10-05T14:12:05.383Z,1.00
2022-10-05T14:13:19.442Z,1.00
2022-10-05T14:14:30.686Z,1.00
2022-10-05T14:15:41.961Z,1.00
2022-10-05T14:16:51.481Z,1.00
2022-10-05T14:17:53.194Z,1.00
2022-10-05T14:19:09.158Z,1.00
2022-10-05T14:20:31.602Z,1.00
2022-10-05T14:22:03.066Z,1.00
2022-10-05T14:23:24.365Z,1.00
2022-10-05T14:24:44.510Z,1.00
2022-10-05T14:25:55.629Z,1.00
2022-10-05T14:26:59.388Z,1.00
2022-10-05T14:28:26.068Z,1.00
2022-10-05T14:29:37.374Z,1.00
2022-10-05T14:30:40.176Z,1.00
2022-10-05T14:32:15.677Z,1.00
2022-10-05T14:33:17.420Z,1.00
2022-10-05T14:34:44.965Z,1.00
2022-10-05T14:35:50.307Z,1.00
2022-10-05T14:36:57.930Z,1.00
2022-10-05T14:38:02.735Z,1.00
2022-10-05T14:39:11.693Z,1.00
2022-10-05T14:40:31.535Z,1.00
2022-10-05T14:41:37.683Z,1.00
2022-10-05T14:42:47.090Z,1.00
2022-10-05T14:43:50.968Z,1.00
2022-10-05T14:45:14.828Z,1.00
2022-10-05T14:46:16.768Z,1.00
2022-10-05T14:47:22.749Z,1.00
2022-10-05T14:48:29.151Z,1.00
2022-10-05T14:49:36.078Z,1.00
2022-10-05T14:50:59.455Z,1.00
2022-10-05T14:52:26.884Z,1.00
2022-10-05T14:53:44.491Z,1.00
2022-10-05T14:54:59.365Z,1.00
2022-10-05T14:56:17.100Z,1.00
2022-10-05T14:57:52.297Z,1.00
2022-10-05T14:59:14.072Z,1.00
2022-10-05T15:00:17.798Z,1.00
2022-10-05T15:01:33.957Z,1.00
2022-10-05T15:03:17.979Z,1.00
2022-10-05T15:04:44.685Z,1.00
2022-10-05T15:05:58.875Z,1.00
2022-10-05T15:07:13.187Z,1.00
2022-10-05T15:08:41.443Z,1.00
2022-10-05T15:10:22.527Z,1.00
2022-10-05T15:11:51.417Z,1.00
2022-10-05T15:12:58.231Z,1.00
2022-10-05T15:14:01.323Z,1.00
2022-10-05T15:15:34.197Z,1.00
2022-10-05T15:16:39.101Z,1.00
2022-10-05T15:17:52.482Z,1.00
2022-10-05T15:19:17.905Z,1.00
2022-10-05T15:20:43.774Z,1.00
2022-10-05T15:21:55.200Z,1.00
2022-10-05T15:23:11.172Z,1.00
2022-10-05T15:24:20.348Z,1.00
2022-10-05T15:25:40.400Z,1.00
2022-10-05T15:26:51.509Z,1.00
2022-10-05T15:28:01.805Z,1.00
2022-10-05T15:29:14.708Z,1.00
2022-10-05T15:30:18.276Z,1.00
2022-10-05T15:31:25.731Z,1.00
2022-10-05T15:33:05.363Z,1.00
2022-10-05T15:34:26.985Z,1.00
2022-10-05T15:35:37.607Z,1.00
2022-10-05T15:36:49.414Z,1.00
2022-10-05T15:37:59.737Z,1.00
2022-10-05T15:39:04.454Z,1.00
2022-10-05T15:40:30.545Z,1.00
2022-10-05T15:42:02.034Z,1.00
2022-10-05T15:43:13.966Z,1.00
2022-10-05T15:44:46.403Z,1.00
2022-10-05T15:46:03.587Z,1.00
2022-10-05T15:47:09.008Z,1.00
2022-10-05T15:48:32.176Z,1.00
2022-10-05T15:49:46.656Z,1.00
2022-10-05T15:50:56.963Z,1.00
2022-10-05T15:52:28.096Z,1.00
2022-10-05T15:54:24.407Z,1.00
2022-10-05T15:55:29.134Z,1.00
2022-10-05T15:56:38.412Z,1.00
2022-10-05T15:58:08.308Z,1.00
2022-10-05T15:59:32.499Z,1.00
2022-10-05T16:00:47.513Z,1.00
2022-10-05T16:02:00.811Z,1.00
2022-10-05T16:03:26.142Z,1.00
2022-10-05T16:04:45.469Z,1.00
2022-10-05T16:06:08.237Z,1.00
2022-10-05T16:07:48.871Z,1.00
2022-10-05T16:09:21.440Z,1.00
2022-10-05T16:10:25.056Z,1.00
2022-10-05T16:11:29.442Z,1.00
2022-10-05T16:12:46.668Z,1.00
2022-10-05T16:14:14.061Z,1.00
2022-10-05T16:15:29.192Z,1.00
2022-10-05T16:16:39.614Z,1.00
2022-10-05T16:17:59.297Z,1.00
2022-10-05T16:19:13.773Z,1.00
2022-10-05T16:20:36.498Z,1.00
2022-10-05T16:22:11.069Z,1.00
2022-10-05T16:23:40.048Z,1.00
2022-10-05T16:25:00.458Z,1.00
2022-10-05T16:26:30.418Z,1.00
2022-10-05T16:27:50.635Z,1.00
2022-10-05T16:29:07.816Z,1.00
2022-10-05T16:30:18.264Z,1.00
2022-10-05T16:31:54.372Z,1.00
2022-10-05T16:33:10.358Z,1.00
2022-10-05T16:34:20.695Z,1.00
2022-10-05T16:35:44.360Z,1.00
2022-10-05T16:37:24.035Z,1.00
2022-10-05T16:38:55.060Z,1.00
2022-10-05T16:40:06.169Z,1.00
2022-10-05T16:41:31.484Z,1.00
2022-10-05T16:42:46.459Z,1.00
2022-10-05T16:44:14.162Z,1.00
2022-10-05T16:45:52.137Z,1.00
2022-10-05T16:47:05.927Z,1.00
2022-10-05T16:48:42.805Z,1.00
2022-10-05T16:49:55.751Z,1.00
2022-10-05T16:50:57.377Z,1.00
2022-10-05T16:52:07.087Z,1.00
2022-10-05T16:53:18.947Z,1.00
2022-10-05T16:54:25.674Z,1.00
2022-10-05T16:55:38.163Z,1.00
2022-10-05T16:56:57.451Z,1.00
2022-10-05T16:58:01.932Z,1.00
2022-10-05T16:59:28.688Z,1.00
2022-10-05T17:00:51.961Z,1.00
2022-10-05T17:01:53.660Z,1.00
2022-10-05T17:03:16.602Z,1.00
2022-10-05T17:04:24.298Z,1.00
2022-10-05T17:05:47.453Z,1.00
2022-10-05T17:06:54.046Z,1.00
2022-10-05T17:08:21.508Z,1.00
2022-10-05T17:09:41.362Z,1.00
2022-10-05T17:10:51.900Z,1.00
2022-10-05T17:12:26.912Z,1.00
2022-10-05T17:14:00.923Z,1.00
2022-10-05T17:15:20.444Z,1.00
2022-10-05T17:16:43.814Z,1.00